Fort Calhoun, Nebraska
Current Conditions -  °F | °C
As of 3:35 PM on Monday 24 Nov 2014 (Local Time) from KBTA Reporting Station
Clear Clear  
Wind Chill: 24°   Ceiling: Unl
Heat Index: 36°   Visibility: 10mi
Dew Point: 16°   Wind: 24mph
Humidity: 45%   Direction: 310°NW
Pressure: 29.81"   Gusts: 33mph
Location:  41.46°N, 96.03°W
Report Text: KBTA 242135Z AUTO 31021G29KT 10SM CLR 02/M09 A2981 RMK AO2 T00211087
Loading
Personal Weather Stations






























Interactive Weather Map New forecast layout! Learn more

10-Day Weather Forecast

Advertisements
Track Severe Weather on mobile